sensor_id;sensor_type;location;lat;lon;timestamp;P1;durP1;ratioP1;P2;durP2;ratioP2
5722;SDS011;2886;49.722;8.612;2023-01-19T00:00:05;5.50;;;3.93;;
5722;SDS011;2886;49.722;8.612;2023-01-19T00:02:36;9.53;;;4.47;;
5722;SDS011;2886;49.722;8.612;2023-01-19T00:05:02;9.80;;;3.97;;
5722;SDS011;2886;49.722;8.612;2023-01-19T00:07:32;9.10;;;5.00;;
5722;SDS011;2886;49.722;8.612;2023-01-19T00:09:58;8.30;;;4.70;;
5722;SDS011;2886;49.722;8.612;2023-01-19T00:12:24;9.03;;;5.27;;
5722;SDS011;2886;49.722;8.612;2023-01-19T00:14:50;9.23;;;4.97;;
5722;SDS011;2886;49.722;8.612;2023-01-19T00:17:16;12.97;;;5.10;;
5722;SDS011;2886;49.722;8.612;2023-01-19T00:19:41;8.43;;;5.03;;
5722;SDS011;2886;49.722;8.612;2023-01-19T00:22:07;6.37;;;4.43;;
5722;SDS011;2886;49.722;8.612;2023-01-19T00:24:32;8.33;;;4.77;;
5722;SDS011;2886;49.722;8.612;2023-01-19T00:26:58;8.13;;;4.83;;
5722;SDS011;2886;49.722;8.612;2023-01-19T00:29:25;7.53;;;4.23;;
5722;SDS011;2886;49.722;8.612;2023-01-19T00:31:54;5.90;;;4.40;;
5722;SDS011;2886;49.722;8.612;2023-01-19T00:34:20;6.77;;;4.73;;
5722;SDS011;2886;49.722;8.612;2023-01-19T00:36:45;10.93;;;5.10;;
5722;SDS011;2886;49.722;8.612;2023-01-19T00:39:11;7.33;;;4.70;;
5722;SDS011;2886;49.722;8.612;2023-01-19T00:41:37;8.50;;;5.20;;
5722;SDS011;2886;49.722;8.612;2023-01-19T00:44:21;10.10;;;5.13;;
5722;SDS011;2886;49.722;8.612;2023-01-19T00:46:46;11.17;;;5.07;;
5722;SDS011;2886;49.722;8.612;2023-01-19T00:49:12;7.83;;;4.80;;
5722;SDS011;2886;49.722;8.612;2023-01-19T00:51:37;6.40;;;4.17;;
5722;SDS011;2886;49.722;8.612;2023-01-19T00:54:03;9.20;;;5.17;;
5722;SDS011;2886;49.722;8.612;2023-01-19T00:56:31;10.27;;;5.00;;
5722;SDS011;2886;49.722;8.612;2023-01-19T00:58:57;7.17;;;4.70;;
5722;SDS011;2886;49.722;8.612;2023-01-19T01:01:23;5.63;;;4.03;;
5722;SDS011;2886;49.722;8.612;2023-01-19T01:03:49;7.10;;;4.50;;
5722;SDS011;2886;49.722;8.612;2023-01-19T01:06:14;8.20;;;4.73;;
5722;SDS011;2886;49.722;8.612;2023-01-19T01:08:40;8.63;;;4.70;;
5722;SDS011;2886;49.722;8.612;2023-01-19T01:11:06;9.53;;;4.57;;
5722;SDS011;2886;49.722;8.612;2023-01-19T01:13:31;9.90;;;5.60;;
5722;SDS011;2886;49.722;8.612;2023-01-19T01:15:57;7.20;;;4.43;;
5722;SDS011;2886;49.722;8.612;2023-01-19T01:18:23;12.73;;;4.97;;
5722;SDS011;2886;49.722;8.612;2023-01-19T01:20:49;13.73;;;5.93;;
5722;SDS011;2886;49.722;8.612;2023-01-19T01:23:15;9.07;;;5.00;;
5722;SDS011;2886;49.722;8.612;2023-01-19T01:25:46;12.30;;;5.07;;
5722;SDS011;2886;49.722;8.612;2023-01-19T01:28:12;16.00;;;5.63;;
5722;SDS011;2886;49.722;8.612;2023-01-19T01:30:38;7.13;;;4.93;;
5722;SDS011;2886;49.722;8.612;2023-01-19T01:33:05;8.10;;;5.27;;
5722;SDS011;2886;49.722;8.612;2023-01-19T01:35:31;12.67;;;5.93;;
5722;SDS011;2886;49.722;8.612;2023-01-19T01:38:00;8.43;;;5.60;;
5722;SDS011;2886;49.722;8.612;2023-01-19T01:40:25;10.03;;;5.00;;
5722;SDS011;2886;49.722;8.612;2023-01-19T01:42:52;11.87;;;5.60;;
5722;SDS011;2886;49.722;8.612;2023-01-19T01:48:09;8.23;;;4.80;;
5722;SDS011;2886;49.722;8.612;2023-01-19T01:50:47;10.20;;;6.20;;
5722;SDS011;2886;49.722;8.612;2023-01-19T01:53:40;15.33;;;5.87;;
5722;SDS011;2886;49.722;8.612;2023-01-19T01:56:08;10.37;;;5.73;;
5722;SDS011;2886;49.722;8.612;2023-01-19T01:58:38;8.93;;;5.27;;
5722;SDS011;2886;49.722;8.612;2023-01-19T02:01:05;9.17;;;5.67;;
5722;SDS011;2886;49.722;8.612;2023-01-19T02:03:50;10.43;;;5.50;;
5722;SDS011;2886;49.722;8.612;2023-01-19T02:06:17;13.30;;;5.67;;
5722;SDS011;2886;49.722;8.612;2023-01-19T02:08:45;14.97;;;7.20;;
5722;SDS011;2886;49.722;8.612;2023-01-19T02:11:35;12.83;;;5.70;;
5722;SDS011;2886;49.722;8.612;2023-01-19T02:14:19;11.87;;;6.90;;
5722;SDS011;2886;49.722;8.612;2023-01-19T02:16:45;20.93;;;6.77;;
5722;SDS011;2886;49.722;8.612;2023-01-19T02:19:12;11.10;;;7.20;;
5722;SDS011;2886;49.722;8.612;2023-01-19T02:21:45;12.00;;;6.63;;
5722;SDS011;2886;49.722;8.612;2023-01-19T02:24:25;11.37;;;6.40;;
5722;SDS011;2886;49.722;8.612;2023-01-19T02:26:53;8.83;;;5.27;;
5722;SDS011;2886;49.722;8.612;2023-01-19T02:29:20;10.47;;;6.00;;
5722;SDS011;2886;49.722;8.612;2023-01-19T02:31:49;30.90;;;6.63;;
5722;SDS011;2886;49.722;8.612;2023-01-19T02:34:16;12.90;;;6.90;;
5722;SDS011;2886;49.722;8.612;2023-01-19T02:36:50;12.70;;;6.17;;
5722;SDS011;2886;49.722;8.612;2023-01-19T02:39:22;19.27;;;6.73;;
5722;SDS011;2886;49.722;8.612;2023-01-19T02:41:58;15.13;;;7.73;;
5722;SDS011;2886;49.722;8.612;2023-01-19T02:44:27;12.67;;;5.67;;
5722;SDS011;2886;49.722;8.612;2023-01-19T02:46:54;11.07;;;5.50;;
5722;SDS011;2886;49.722;8.612;2023-01-19T02:49:20;10.83;;;6.23;;
5722;SDS011;2886;49.722;8.612;2023-01-19T02:51:46;11.17;;;6.23;;
5722;SDS011;2886;49.722;8.612;2023-01-19T02:57:22;13.77;;;6.50;;
5722;SDS011;2886;49.722;8.612;2023-01-19T03:08:29;16.73;;;7.77;;
5722;SDS011;2886;49.722;8.612;2023-01-19T03:11:12;13.07;;;6.20;;
5722;SDS011;2886;49.722;8.612;2023-01-19T03:18:50;15.73;;;7.60;;
5722;SDS011;2886;49.722;8.612;2023-01-19T03:21:19;14.77;;;7.53;;
5722;SDS011;2886;49.722;8.612;2023-01-19T03:23:50;14.00;;;6.90;;
5722;SDS011;2886;49.722;8.612;2023-01-19T03:26:18;15.27;;;8.03;;
5722;SDS011;2886;49.722;8.612;2023-01-19T03:28:46;12.60;;;6.80;;
5722;SDS011;2886;49.722;8.612;2023-01-19T03:31:18;13.20;;;7.40;;
5722;SDS011;2886;49.722;8.612;2023-01-19T03:33:58;19.93;;;7.87;;
5722;SDS011;2886;49.722;8.612;2023-01-19T03:36:44;13.43;;;6.80;;
5722;SDS011;2886;49.722;8.612;2023-01-19T03:39:15;10.53;;;7.07;;
5722;SDS011;2886;49.722;8.612;2023-01-19T03:41:47;13.33;;;7.37;;
5722;SDS011;2886;49.722;8.612;2023-01-19T03:44:15;15.37;;;6.80;;
5722;SDS011;2886;49.722;8.612;2023-01-19T03:46:41;18.10;;;8.30;;
5722;SDS011;2886;49.722;8.612;2023-01-19T03:49:07;22.53;;;6.73;;
5722;SDS011;2886;49.722;8.612;2023-01-19T03:51:37;13.93;;;7.97;;
5722;SDS011;2886;49.722;8.612;2023-01-19T03:54:08;16.80;;;7.53;;
5722;SDS011;2886;49.722;8.612;2023-01-19T03:56:34;15.53;;;7.97;;
5722;SDS011;2886;49.722;8.612;2023-01-19T03:58:59;10.37;;;6.70;;
5722;SDS011;2886;49.722;8.612;2023-01-19T04:01:25;12.20;;;7.47;;
5722;SDS011;2886;49.722;8.612;2023-01-19T04:03:51;17.30;;;7.93;;
5722;SDS011;2886;49.722;8.612;2023-01-19T04:06:17;16.00;;;7.33;;
5722;SDS011;2886;49.722;8.612;2023-01-19T04:08:46;13.70;;;7.87;;
5722;SDS011;2886;49.722;8.612;2023-01-19T04:11:13;17.70;;;7.20;;
5722;SDS011;2886;49.722;8.612;2023-01-19T04:13:39;13.70;;;7.30;;
5722;SDS011;2886;49.722;8.612;2023-01-19T04:16:04;25.63;;;7.27;;
5722;SDS011;2886;49.722;8.612;2023-01-19T04:18:31;10.63;;;6.57;;
5722;SDS011;2886;49.722;8.612;2023-01-19T04:21:01;12.00;;;6.20;;
5722;SDS011;2886;49.722;8.612;2023-01-19T04:23:28;12.87;;;7.40;;
5722;SDS011;2886;49.722;8.612;2023-01-19T04:25:58;13.00;;;7.73;;
5722;SDS011;2886;49.722;8.612;2023-01-19T04:28:25;14.03;;;7.27;;
5722;SDS011;2886;49.722;8.612;2023-01-19T04:30:51;14.00;;;7.30;;
5722;SDS011;2886;49.722;8.612;2023-01-19T04:33:17;11.43;;;7.10;;
5722;SDS011;2886;49.722;8.612;2023-01-19T04:35:44;14.80;;;7.97;;
5722;SDS011;2886;49.722;8.612;2023-01-19T04:38:10;12.20;;;7.77;;
5722;SDS011;2886;49.722;8.612;2023-01-19T04:40:35;12.03;;;7.00;;
5722;SDS011;2886;49.722;8.612;2023-01-19T04:43:01;10.90;;;6.53;;
5722;SDS011;2886;49.722;8.612;2023-01-19T04:45:26;14.63;;;6.73;;
5722;SDS011;2886;49.722;8.612;2023-01-19T04:47:52;10.53;;;6.97;;
5722;SDS011;2886;49.722;8.612;2023-01-19T04:50:18;13.90;;;7.30;;
5722;SDS011;2886;49.722;8.612;2023-01-19T04:52:45;11.97;;;7.20;;
5722;SDS011;2886;49.722;8.612;2023-01-19T04:55:11;14.10;;;7.03;;
5722;SDS011;2886;49.722;8.612;2023-01-19T04:57:37;16.63;;;7.37;;
5722;SDS011;2886;49.722;8.612;2023-01-19T05:00:05;10.97;;;6.90;;
5722;SDS011;2886;49.722;8.612;2023-01-19T05:02:31;11.73;;;6.53;;
5722;SDS011;2886;49.722;8.612;2023-01-19T05:04:58;15.83;;;6.30;;
5722;SDS011;2886;49.722;8.612;2023-01-19T05:07:30;14.80;;;7.30;;
5722;SDS011;2886;49.722;8.612;2023-01-19T05:09:59;14.60;;;7.03;;
5722;SDS011;2886;49.722;8.612;2023-01-19T05:12:25;10.70;;;7.03;;
5722;SDS011;2886;49.722;8.612;2023-01-19T05:14:51;10.90;;;6.50;;
5722;SDS011;2886;49.722;8.612;2023-01-19T05:17:17;12.37;;;7.87;;
5722;SDS011;2886;49.722;8.612;2023-01-19T05:19:42;12.93;;;7.97;;
5722;SDS011;2886;49.722;8.612;2023-01-19T05:22:08;11.53;;;6.63;;
5722;SDS011;2886;49.722;8.612;2023-01-19T05:24:33;10.87;;;7.00;;
5722;SDS011;2886;49.722;8.612;2023-01-19T05:26:59;13.67;;;7.00;;
5722;SDS011;2886;49.722;8.612;2023-01-19T05:29:25;12.47;;;7.87;;
5722;SDS011;2886;49.722;8.612;2023-01-19T05:31:50;14.00;;;7.47;;
5722;SDS011;2886;49.722;8.612;2023-01-19T05:34:17;18.73;;;7.07;;
5722;SDS011;2886;49.722;8.612;2023-01-19T05:36:43;20.70;;;7.17;;
5722;SDS011;2886;49.722;8.612;2023-01-19T05:39:08;14.07;;;8.13;;
5722;SDS011;2886;49.722;8.612;2023-01-19T05:41:34;12.13;;;7.37;;
5722;SDS011;2886;49.722;8.612;2023-01-19T05:44:00;21.43;;;10.23;;
5722;SDS011;2886;49.722;8.612;2023-01-19T05:46:25;9.33;;;6.63;;
5722;SDS011;2886;49.722;8.612;2023-01-19T05:48:51;11.07;;;6.87;;
5722;SDS011;2886;49.722;8.612;2023-01-19T05:51:16;17.50;;;7.40;;
5722;SDS011;2886;49.722;8.612;2023-01-19T05:53:42;12.43;;;6.87;;
5722;SDS011;2886;49.722;8.612;2023-01-19T05:56:08;14.77;;;7.20;;
5722;SDS011;2886;49.722;8.612;2023-01-19T05:58:35;13.30;;;7.10;;
5722;SDS011;2886;49.722;8.612;2023-01-19T06:01:06;15.50;;;6.63;;
5722;SDS011;2886;49.722;8.612;2023-01-19T06:03:34;12.87;;;7.00;;
5722;SDS011;2886;49.722;8.612;2023-01-19T06:06:01;11.13;;;7.10;;
5722;SDS011;2886;49.722;8.612;2023-01-19T06:08:27;18.93;;;8.07;;
5722;SDS011;2886;49.722;8.612;2023-01-19T06:10:53;15.30;;;7.07;;
5722;SDS011;2886;49.722;8.612;2023-01-19T06:13:19;13.57;;;6.80;;
5722;SDS011;2886;49.722;8.612;2023-01-19T06:15:45;15.70;;;7.30;;
5722;SDS011;2886;49.722;8.612;2023-01-19T06:18:11;14.00;;;7.57;;
5722;SDS011;2886;49.722;8.612;2023-01-19T06:20:38;14.93;;;7.87;;
5722;SDS011;2886;49.722;8.612;2023-01-19T06:23:04;16.20;;;7.73;;
5722;SDS011;2886;49.722;8.612;2023-01-19T06:25:30;13.87;;;7.13;;
5722;SDS011;2886;49.722;8.612;2023-01-19T06:27:56;14.40;;;8.00;;
5722;SDS011;2886;49.722;8.612;2023-01-19T06:30:21;20.83;;;8.80;;
5722;SDS011;2886;49.722;8.612;2023-01-19T06:32:47;25.60;;;9.60;;
5722;SDS011;2886;49.722;8.612;2023-01-19T06:35:13;15.00;;;7.87;;
5722;SDS011;2886;49.722;8.612;2023-01-19T06:37:38;13.07;;;7.20;;
5722;SDS011;2886;49.722;8.612;2023-01-19T06:40:05;13.70;;;7.40;;
5722;SDS011;2886;49.722;8.612;2023-01-19T06:42:31;17.60;;;8.17;;
5722;SDS011;2886;49.722;8.612;2023-01-19T06:44:57;15.30;;;7.70;;
5722;SDS011;2886;49.722;8.612;2023-01-19T06:47:22;18.70;;;8.20;;
5722;SDS011;2886;49.722;8.612;2023-01-19T06:49:48;13.20;;;7.90;;
5722;SDS011;2886;49.722;8.612;2023-01-19T06:52:14;14.97;;;7.70;;
5722;SDS011;2886;49.722;8.612;2023-01-19T06:54:41;13.00;;;7.93;;
5722;SDS011;2886;49.722;8.612;2023-01-19T06:57:07;11.83;;;7.50;;
5722;SDS011;2886;49.722;8.612;2023-01-19T06:59:33;12.93;;;7.43;;
5722;SDS011;2886;49.722;8.612;2023-01-19T07:01:59;19.63;;;9.23;;
5722;SDS011;2886;49.722;8.612;2023-01-19T07:04:24;17.13;;;8.87;;
5722;SDS011;2886;49.722;8.612;2023-01-19T07:06:51;14.70;;;8.40;;
5722;SDS011;2886;49.722;8.612;2023-01-19T07:09:16;14.53;;;7.97;;
5722;SDS011;2886;49.722;8.612;2023-01-19T07:11:44;17.97;;;8.63;;
5722;SDS011;2886;49.722;8.612;2023-01-19T07:14:10;18.80;;;9.37;;
5722;SDS011;2886;49.722;8.612;2023-01-19T07:16:36;14.50;;;7.90;;
5722;SDS011;2886;49.722;8.612;2023-01-19T07:19:02;15.73;;;8.43;;
5722;SDS011;2886;49.722;8.612;2023-01-19T07:21:27;13.33;;;7.40;;
5722;SDS011;2886;49.722;8.612;2023-01-19T07:23:53;24.30;;;9.10;;
5722;SDS011;2886;49.722;8.612;2023-01-19T07:26:19;17.93;;;9.43;;
5722;SDS011;2886;49.722;8.612;2023-01-19T07:28:48;17.40;;;8.43;;
5722;SDS011;2886;49.722;8.612;2023-01-19T07:31:14;18.53;;;8.20;;
5722;SDS011;2886;49.722;8.612;2023-01-19T07:33:40;16.10;;;8.73;;
5722;SDS011;2886;49.722;8.612;2023-01-19T07:36:05;14.97;;;8.27;;
5722;SDS011;2886;49.722;8.612;2023-01-19T07:38:32;17.70;;;8.77;;
5722;SDS011;2886;49.722;8.612;2023-01-19T07:41:01;17.63;;;8.70;;
5722;SDS011;2886;49.722;8.612;2023-01-19T07:43:28;13.97;;;7.30;;
5722;SDS011;2886;49.722;8.612;2023-01-19T07:45:55;17.37;;;7.60;;
5722;SDS011;2886;49.722;8.612;2023-01-19T07:48:22;11.83;;;8.30;;
5722;SDS011;2886;49.722;8.612;2023-01-19T07:50:47;16.70;;;8.40;;
5722;SDS011;2886;49.722;8.612;2023-01-19T07:53:13;17.60;;;8.17;;
5722;SDS011;2886;49.722;8.612;2023-01-19T07:55:38;19.83;;;9.60;;
5722;SDS011;2886;49.722;8.612;2023-01-19T07:58:04;15.80;;;9.10;;
5722;SDS011;2886;49.722;8.612;2023-01-19T08:00:31;15.57;;;8.77;;
5722;SDS011;2886;49.722;8.612;2023-01-19T08:02:58;16.00;;;9.20;;
5722;SDS011;2886;49.722;8.612;2023-01-19T08:05:24;16.73;;;9.60;;
5722;SDS011;2886;49.722;8.612;2023-01-19T08:07:51;17.10;;;8.37;;
5722;SDS011;2886;49.722;8.612;2023-01-19T08:10:17;15.50;;;8.17;;
5722;SDS011;2886;49.722;8.612;2023-01-19T08:12:42;16.90;;;8.53;;
5722;SDS011;2886;49.722;8.612;2023-01-19T08:15:08;28.63;;;8.50;;
5722;SDS011;2886;49.722;8.612;2023-01-19T08:17:34;19.07;;;8.90;;
5722;SDS011;2886;49.722;8.612;2023-01-19T08:20:03;13.30;;;8.00;;
5722;SDS011;2886;49.722;8.612;2023-01-19T08:22:29;15.47;;;9.07;;
5722;SDS011;2886;49.722;8.612;2023-01-19T08:24:54;14.23;;;7.90;;
5722;SDS011;2886;49.722;8.612;2023-01-19T08:27:20;20.20;;;8.00;;
5722;SDS011;2886;49.722;8.612;2023-01-19T08:29:45;16.77;;;8.97;;
5722;SDS011;2886;49.722;8.612;2023-01-19T08:32:11;15.60;;;8.80;;
5722;SDS011;2886;49.722;8.612;2023-01-19T08:34:36;19.57;;;8.77;;
5722;SDS011;2886;49.722;8.612;2023-01-19T08:37:02;18.60;;;8.73;;
5722;SDS011;2886;49.722;8.612;2023-01-19T08:39:28;13.77;;;8.20;;
5722;SDS011;2886;49.722;8.612;2023-01-19T08:41:53;16.43;;;8.27;;
5722;SDS011;2886;49.722;8.612;2023-01-19T08:44:19;21.17;;;9.43;;
5722;SDS011;2886;49.722;8.612;2023-01-19T08:46:45;19.10;;;9.37;;
5722;SDS011;2886;49.722;8.612;2023-01-19T08:49:11;19.63;;;8.20;;
5722;SDS011;2886;49.722;8.612;2023-01-19T08:51:37;22.57;;;8.40;;
5722;SDS011;2886;49.722;8.612;2023-01-19T08:54:02;19.53;;;8.73;;
5722;SDS011;2886;49.722;8.612;2023-01-19T08:56:29;20.40;;;8.80;;
5722;SDS011;2886;49.722;8.612;2023-01-19T08:58:55;15.77;;;8.40;;
5722;SDS011;2886;49.722;8.612;2023-01-19T09:01:21;14.47;;;8.00;;
5722;SDS011;2886;49.722;8.612;2023-01-19T09:03:47;12.03;;;7.23;;
5722;SDS011;2886;49.722;8.612;2023-01-19T09:06:14;14.83;;;7.70;;
5722;SDS011;2886;49.722;8.612;2023-01-19T09:08:44;15.23;;;9.13;;
5722;SDS011;2886;49.722;8.612;2023-01-19T09:11:10;19.03;;;8.10;;
5722;SDS011;2886;49.722;8.612;2023-01-19T09:13:37;16.03;;;8.40;;
5722;SDS011;2886;49.722;8.612;2023-01-19T09:16:04;15.67;;;8.37;;
5722;SDS011;2886;49.722;8.612;2023-01-19T09:18:31;17.87;;;8.43;;
5722;SDS011;2886;49.722;8.612;2023-01-19T09:20:58;13.87;;;7.77;;
5722;SDS011;2886;49.722;8.612;2023-01-19T09:23:24;18.83;;;8.27;;
5722;SDS011;2886;49.722;8.612;2023-01-19T09:25:54;18.67;;;7.80;;
5722;SDS011;2886;49.722;8.612;2023-01-19T09:28:21;15.80;;;8.37;;
5722;SDS011;2886;49.722;8.612;2023-01-19T09:30:46;16.20;;;9.27;;
5722;SDS011;2886;49.722;8.612;2023-01-19T09:33:13;17.50;;;8.97;;
5722;SDS011;2886;49.722;8.612;2023-01-19T09:35:40;16.90;;;9.30;;
5722;SDS011;2886;49.722;8.612;2023-01-19T09:38:06;14.80;;;9.00;;
5722;SDS011;2886;49.722;8.612;2023-01-19T09:40:34;14.77;;;9.67;;
5722;SDS011;2886;49.722;8.612;2023-01-19T09:43:23;17.50;;;7.70;;
5722;SDS011;2886;49.722;8.612;2023-01-19T09:46:14;17.53;;;9.07;;
5722;SDS011;2886;49.722;8.612;2023-01-19T09:48:47;14.77;;;8.20;;
5722;SDS011;2886;49.722;8.612;2023-01-19T09:51:22;19.10;;;7.90;;
5722;SDS011;2886;49.722;8.612;2023-01-19T09:56:37;13.43;;;8.37;;
5722;SDS011;2886;49.722;8.612;2023-01-19T09:59:12;16.20;;;8.80;;
5722;SDS011;2886;49.722;8.612;2023-01-19T10:18:27;30.77;;;7.43;;
5722;SDS011;2886;49.722;8.612;2023-01-19T10:21:00;13.10;;;7.40;;
5722;SDS011;2886;49.722;8.612;2023-01-19T10:29:07;17.43;;;8.40;;
5722;SDS011;2886;49.722;8.612;2023-01-19T10:31:42;11.93;;;7.10;;
5722;SDS011;2886;49.722;8.612;2023-01-19T10:34:10;18.57;;;7.80;;
5722;SDS011;2886;49.722;8.612;2023-01-19T10:36:42;13.07;;;7.63;;
5722;SDS011;2886;49.722;8.612;2023-01-19T10:39:10;14.17;;;7.80;;
5722;SDS011;2886;49.722;8.612;2023-01-19T10:41:43;19.70;;;7.37;;
5722;SDS011;2886;49.722;8.612;2023-01-19T10:44:14;11.30;;;7.10;;
5722;SDS011;2886;49.722;8.612;2023-01-19T10:46:57;15.73;;;7.07;;
5722;SDS011;2886;49.722;8.612;2023-01-19T10:49:27;12.27;;;7.30;;
5722;SDS011;2886;49.722;8.612;2023-01-19T10:51:55;12.07;;;7.20;;
5722;SDS011;2886;49.722;8.612;2023-01-19T10:54:22;12.40;;;6.47;;
5722;SDS011;2886;49.722;8.612;2023-01-19T10:56:54;10.73;;;6.87;;
5722;SDS011;2886;49.722;8.612;2023-01-19T10:59:35;14.10;;;7.30;;
5722;SDS011;2886;49.722;8.612;2023-01-19T11:02:23;21.83;;;7.90;;
5722;SDS011;2886;49.722;8.612;2023-01-19T11:04:53;13.37;;;6.70;;
5722;SDS011;2886;49.722;8.612;2023-01-19T11:07:22;14.37;;;8.33;;
5722;SDS011;2886;49.722;8.612;2023-01-19T11:09:48;9.97;;;6.23;;
5722;SDS011;2886;49.722;8.612;2023-01-19T11:12:18;9.83;;;6.77;;
5722;SDS011;2886;49.722;8.612;2023-01-19T11:14:46;12.67;;;6.93;;
5722;SDS011;2886;49.722;8.612;2023-01-19T11:17:23;12.10;;;7.50;;
5722;SDS011;2886;49.722;8.612;2023-01-19T11:20:00;12.33;;;6.53;;
5722;SDS011;2886;49.722;8.612;2023-01-19T11:22:32;13.03;;;7.03;;
5722;SDS011;2886;49.722;8.612;2023-01-19T11:24:59;13.73;;;6.97;;
5722;SDS011;2886;49.722;8.612;2023-01-19T11:27:26;15.20;;;7.10;;
5722;SDS011;2886;49.722;8.612;2023-01-19T11:32:45;16.73;;;7.50;;
5722;SDS011;2886;49.722;8.612;2023-01-19T11:40:36;13.07;;;6.80;;
5722;SDS011;2886;49.722;8.612;2023-01-19T11:43:03;11.67;;;6.50;;
5722;SDS011;2886;49.722;8.612;2023-01-19T11:45:29;16.37;;;7.27;;
5722;SDS011;2886;49.722;8.612;2023-01-19T11:47:56;12.63;;;6.77;;
5722;SDS011;2886;49.722;8.612;2023-01-19T11:50:28;12.10;;;7.07;;
5722;SDS011;2886;49.722;8.612;2023-01-19T11:55:27;13.20;;;6.43;;
5722;SDS011;2886;49.722;8.612;2023-01-19T11:57:57;12.50;;;7.23;;
5722;SDS011;2886;49.722;8.612;2023-01-19T12:00:42;14.00;;;7.10;;
5722;SDS011;2886;49.722;8.612;2023-01-19T12:06:06;13.97;;;7.30;;
5722;SDS011;2886;49.722;8.612;2023-01-19T12:11:10;13.57;;;7.63;;
5722;SDS011;2886;49.722;8.612;2023-01-19T12:13:42;16.40;;;8.47;;
5722;SDS011;2886;49.722;8.612;2023-01-19T12:16:12;14.30;;;8.27;;
5722;SDS011;2886;49.722;8.612;2023-01-19T12:18:47;13.50;;;8.10;;
5722;SDS011;2886;49.722;8.612;2023-01-19T12:21:23;17.70;;;8.30;;
5722;SDS011;2886;49.722;8.612;2023-01-19T12:26:57;13.67;;;8.00;;
5722;SDS011;2886;49.722;8.612;2023-01-19T12:29:17;19.13;;;8.30;;
5722;SDS011;2886;49.722;8.612;2023-01-19T12:31:45;16.30;;;8.20;;
5722;SDS011;2886;49.722;8.612;2023-01-19T12:34:41;15.03;;;8.00;;
5722;SDS011;2886;49.722;8.612;2023-01-19T12:40:00;13.77;;;8.20;;
5722;SDS011;2886;49.722;8.612;2023-01-19T12:42:29;23.73;;;8.30;;
5722;SDS011;2886;49.722;8.612;2023-01-19T12:45:12;18.30;;;8.87;;
5722;SDS011;2886;49.722;8.612;2023-01-19T12:47:48;15.50;;;8.23;;
5722;SDS011;2886;49.722;8.612;2023-01-19T12:50:16;20.13;;;8.90;;
5722;SDS011;2886;49.722;8.612;2023-01-19T12:52:48;15.53;;;8.70;;
5722;SDS011;2886;49.722;8.612;2023-01-19T12:55:25;17.00;;;9.80;;
5722;SDS011;2886;49.722;8.612;2023-01-19T13:02:50;19.40;;;9.50;;
5722;SDS011;2886;49.722;8.612;2023-01-19T13:05:23;18.43;;;9.23;;
5722;SDS011;2886;49.722;8.612;2023-01-19T13:13:33;20.37;;;9.87;;
5722;SDS011;2886;49.722;8.612;2023-01-19T13:18:46;17.80;;;9.63;;
5722;SDS011;2886;49.722;8.612;2023-01-19T13:21:29;17.93;;;9.10;;
5722;SDS011;2886;49.722;8.612;2023-01-19T13:24:03;14.37;;;8.60;;
5722;SDS011;2886;49.722;8.612;2023-01-19T13:29:09;22.33;;;9.80;;
5722;SDS011;2886;49.722;8.612;2023-01-19T13:31:42;17.73;;;8.60;;
5722;SDS011;2886;49.722;8.612;2023-01-19T13:34:23;14.23;;;7.80;;
5722;SDS011;2886;49.722;8.612;2023-01-19T13:36:52;18.53;;;9.33;;
5722;SDS011;2886;49.722;8.612;2023-01-19T13:39:26;15.83;;;8.40;;
5722;SDS011;2886;49.722;8.612;2023-01-19T13:41:56;15.73;;;8.83;;
5722;SDS011;2886;49.722;8.612;2023-01-19T13:44:32;13.87;;;7.70;;
5722;SDS011;2886;49.722;8.612;2023-01-19T13:47:11;12.80;;;7.50;;
5722;SDS011;2886;49.722;8.612;2023-01-19T13:49:43;14.40;;;7.90;;
5722;SDS011;2886;49.722;8.612;2023-01-19T13:52:20;22.43;;;9.60;;
5722;SDS011;2886;49.722;8.612;2023-01-19T13:54:50;19.20;;;7.77;;
5722;SDS011;2886;49.722;8.612;2023-01-19T13:58:00;34.97;;;8.30;;
5722;SDS011;2886;49.722;8.612;2023-01-19T14:02:49;16.30;;;8.70;;
5722;SDS011;2886;49.722;8.612;2023-01-19T14:05:19;15.97;;;8.90;;
5722;SDS011;2886;49.722;8.612;2023-01-19T14:08:03;13.97;;;7.30;;
5722;SDS011;2886;49.722;8.612;2023-01-19T14:10:37;13.20;;;7.87;;
5722;SDS011;2886;49.722;8.612;2023-01-19T14:13:10;11.23;;;7.83;;
5722;SDS011;2886;49.722;8.612;2023-01-19T14:15:37;15.67;;;7.80;;
5722;SDS011;2886;49.722;8.612;2023-01-19T14:18:08;13.97;;;7.23;;
5722;SDS011;2886;49.722;8.612;2023-01-19T14:26:02;15.30;;;7.90;;
5722;SDS011;2886;49.722;8.612;2023-01-19T14:31:01;17.30;;;8.70;;
5722;SDS011;2886;49.722;8.612;2023-01-19T14:33:48;14.00;;;7.73;;
5722;SDS011;2886;49.722;8.612;2023-01-19T14:38:44;15.33;;;7.30;;
5722;SDS011;2886;49.722;8.612;2023-01-19T14:44:16;17.03;;;8.40;;
5722;SDS011;2886;49.722;8.612;2023-01-19T14:46:48;14.87;;;8.57;;
5722;SDS011;2886;49.722;8.612;2023-01-19T14:49:47;16.70;;;8.90;;
5722;SDS011;2886;49.722;8.612;2023-01-19T14:52:19;15.83;;;8.70;;
5722;SDS011;2886;49.722;8.612;2023-01-19T14:54:51;17.13;;;9.27;;
5722;SDS011;2886;49.722;8.612;2023-01-19T14:57:18;23.23;;;10.83;;
5722;SDS011;2886;49.722;8.612;2023-01-19T14:59:44;15.70;;;8.90;;
5722;SDS011;2886;49.722;8.612;2023-01-19T15:02:13;19.03;;;9.30;;
5722;SDS011;2886;49.722;8.612;2023-01-19T15:04:39;16.43;;;7.57;;
5722;SDS011;2886;49.722;8.612;2023-01-19T15:07:05;12.43;;;7.27;;
5722;SDS011;2886;49.722;8.612;2023-01-19T15:09:40;13.73;;;8.50;;
5722;SDS011;2886;49.722;8.612;2023-01-19T15:12:05;13.77;;;8.60;;
5722;SDS011;2886;49.722;8.612;2023-01-19T15:14:33;21.47;;;8.60;;
5722;SDS011;2886;49.722;8.612;2023-01-19T15:16:59;19.60;;;8.70;;
5722;SDS011;2886;49.722;8.612;2023-01-19T15:19:25;23.70;;;8.60;;
5722;SDS011;2886;49.722;8.612;2023-01-19T15:21:50;23.20;;;9.50;;
5722;SDS011;2886;49.722;8.612;2023-01-19T15:24:16;16.90;;;8.50;;
5722;SDS011;2886;49.722;8.612;2023-01-19T15:26:42;11.53;;;7.10;;
5722;SDS011;2886;49.722;8.612;2023-01-19T15:29:09;17.00;;;7.77;;
5722;SDS011;2886;49.722;8.612;2023-01-19T15:31:40;17.03;;;8.00;;
5722;SDS011;2886;49.722;8.612;2023-01-19T15:34:07;13.50;;;7.30;;
5722;SDS011;2886;49.722;8.612;2023-01-19T15:36:36;17.00;;;7.33;;
5722;SDS011;2886;49.722;8.612;2023-01-19T15:39:01;12.03;;;7.70;;
5722;SDS011;2886;49.722;8.612;2023-01-19T15:41:27;12.83;;;7.60;;
5722;SDS011;2886;49.722;8.612;2023-01-19T15:43:56;17.00;;;9.87;;
5722;SDS011;2886;49.722;8.612;2023-01-19T15:46:22;14.23;;;7.70;;
5722;SDS011;2886;49.722;8.612;2023-01-19T15:48:49;17.67;;;8.17;;
5722;SDS011;2886;49.722;8.612;2023-01-19T15:51:17;16.27;;;8.97;;
5722;SDS011;2886;49.722;8.612;2023-01-19T15:53:44;18.97;;;9.37;;
5722;SDS011;2886;49.722;8.612;2023-01-19T15:56:14;16.73;;;9.70;;
5722;SDS011;2886;49.722;8.612;2023-01-19T15:58:42;14.80;;;8.30;;
5722;SDS011;2886;49.722;8.612;2023-01-19T16:01:12;15.40;;;6.80;;
5722;SDS011;2886;49.722;8.612;2023-01-19T16:03:39;10.60;;;6.37;;
5722;SDS011;2886;49.722;8.612;2023-01-19T16:06:05;15.97;;;7.90;;
5722;SDS011;2886;49.722;8.612;2023-01-19T16:08:32;19.17;;;6.90;;
5722;SDS011;2886;49.722;8.612;2023-01-19T16:11:01;11.93;;;6.23;;
5722;SDS011;2886;49.722;8.612;2023-01-19T16:13:31;12.63;;;7.50;;
5722;SDS011;2886;49.722;8.612;2023-01-19T16:16:04;19.53;;;7.10;;
5722;SDS011;2886;49.722;8.612;2023-01-19T16:18:37;11.70;;;7.53;;
5722;SDS011;2886;49.722;8.612;2023-01-19T16:21:03;15.63;;;6.80;;
5722;SDS011;2886;49.722;8.612;2023-01-19T16:23:29;14.27;;;7.40;;
5722;SDS011;2886;49.722;8.612;2023-01-19T16:25:56;13.03;;;8.17;;
5722;SDS011;2886;49.722;8.612;2023-01-19T16:28:22;12.23;;;6.93;;
5722;SDS011;2886;49.722;8.612;2023-01-19T16:30:49;14.53;;;7.33;;
5722;SDS011;2886;49.722;8.612;2023-01-19T16:33:15;14.77;;;7.00;;
5722;SDS011;2886;49.722;8.612;2023-01-19T16:35:41;13.07;;;6.67;;
5722;SDS011;2886;49.722;8.612;2023-01-19T16:38:07;11.23;;;6.00;;
5722;SDS011;2886;49.722;8.612;2023-01-19T16:40:33;9.30;;;5.63;;
5722;SDS011;2886;49.722;8.612;2023-01-19T16:42:59;12.00;;;5.60;;
5722;SDS011;2886;49.722;8.612;2023-01-19T16:45:25;6.87;;;5.07;;
5722;SDS011;2886;49.722;8.612;2023-01-19T16:47:51;11.73;;;6.00;;
5722;SDS011;2886;49.722;8.612;2023-01-19T16:50:17;9.57;;;5.73;;